Time;durP1;ratioP1;P1;durP2;ratioP2;P2;SDS_P1;SDS_P2;PMS_P1;PMS_P2;Temp;Humidity;BMP_temperature;BMP_pressure;BME280_temperature;BME280_humidity;BME280_pressure;Samples;Min_cycle;Max_cycle;Signal;HPM_P1;HPM_P2
2023/09/18 00:02:08;;;;;;;1.10;1.10;;;;;;;21.06;100.00;99919.44;5111016;28;20202;-63
2023/09/18 00:04:35;;;;;;;1.40;1.40;;;;;;;21.08;100.00;99922.75;5111465;28;20693;-63
2023/09/18 00:07:02;;;;;;;1.10;1.00;;;;;;;21.10;100.00;99917.50;5111076;28;20334;-63
2023/09/18 00:09:29;;;;;;;0.90;0.90;;;;;;;21.11;100.00;99916.53;5110814;28;20578;-63
2023/09/18 00:11:55;;;;;;;1.20;1.20;;;;;;;21.16;100.00;99930.13;5111467;28;20671;-63
2023/09/18 00:14:22;;;;;;;1.13;1.10;;;;;;;21.25;100.00;99926.91;5111549;28;20271;-63
2023/09/18 00:16:51;;;;;;;1.07;1.07;;;;;;;21.28;100.00;99929.31;5110891;28;20194;-63
2023/09/18 00:19:18;;;;;;;1.03;1.03;;;;;;;21.29;100.00;99928.41;5110953;28;20663;-63
2023/09/18 00:21:45;;;;;;;1.20;1.20;;;;;;;21.33;100.00;99922.00;5110851;28;20211;-63
2023/09/18 00:24:12;;;;;;;1.17;1.17;;;;;;;21.27;100.00;99925.03;5110863;28;20198;-63
2023/09/18 00:26:38;;;;;;;1.47;1.47;;;;;;;21.21;100.00;99920.22;5111485;28;20670;-63
2023/09/18 00:29:05;;;;;;;1.77;1.20;;;;;;;21.27;100.00;99919.81;5111106;28;20690;-63
2023/09/18 00:31:32;;;;;;;1.50;1.40;;;;;;;21.14;100.00;99911.97;5110818;28;20191;-63
2023/09/18 00:34:00;;;;;;;1.20;1.17;;;;;;;21.18;100.00;99923.03;5111081;28;20217;-63
2023/09/18 00:36:27;;;;;;;1.30;1.30;;;;;;;21.25;100.00;99919.09;5110971;28;20202;-63
2023/09/18 00:38:53;;;;;;;1.40;1.30;;;;;;;21.26;100.00;99918.16;5110764;28;20525;-63
2023/09/18 00:41:20;;;;;;;1.53;1.50;;;;;;;21.35;100.00;99930.59;5110606;28;20214;-63
2023/09/18 00:43:47;;;;;;;0.90;0.90;;;;;;;21.38;100.00;99927.78;5110880;28;20610;-63
2023/09/18 00:46:14;;;;;;;1.07;1.07;;;;;;;21.38;100.00;99918.19;5110642;28;20232;-63
2023/09/18 00:48:41;;;;;;;1.33;1.33;;;;;;;21.35;100.00;99926.22;5110810;28;20194;-63
2023/09/18 00:51:10;;;;;;;1.27;1.23;;;;;;;21.16;100.00;99906.66;5110811;28;20198;-63
2023/09/18 00:53:39;;;;;;;1.10;1.00;;;;;;;21.22;100.00;99914.91;5111065;28;20194;-63
2023/09/18 00:56:06;;;;;;;1.00;1.00;;;;;;;21.21;100.00;99917.63;5110948;28;20190;-63
2023/09/18 00:58:34;;;;;;;1.50;1.40;;;;;;;21.17;100.00;99913.53;5110115;28;20288;-63
2023/09/18 01:01:01;;;;;;;5.80;0.90;;;;;;;21.13;100.00;99912.06;5109576;28;20212;-63
2023/09/18 01:03:28;;;;;;;1.50;1.40;;;;;;;21.01;100.00;99912.81;5110052;28;20658;-63
2023/09/18 01:05:55;;;;;;;1.00;1.00;;;;;;;21.04;100.00;99910.00;5110780;28;20195;-63
2023/09/18 01:08:23;;;;;;;1.03;1.03;;;;;;;21.11;100.00;99914.78;5110552;28;20243;-63
2023/09/18 01:11:02;;;;;;;0.90;0.90;;;;;;;21.14;100.00;99908.50;5110778;28;20190;-63
2023/09/18 01:13:36;;;;;;;1.27;1.00;;;;;;;21.14;100.00;99903.31;5110534;28;20194;-63
2023/09/18 01:16:09;;;;;;;1.67;1.57;;;;;;;21.17;100.00;99908.31;5110638;28;20202;-63
2023/09/18 01:18:36;;;;;;;1.20;1.20;;;;;;;21.20;100.00;99911.56;5110350;28;20202;-63
2023/09/18 01:21:02;;;;;;;0.77;0.77;;;;;;;21.21;100.00;99917.63;5110905;28;20210;-63
2023/09/18 01:23:31;;;;;;;1.30;1.20;;;;;;;21.13;100.00;99912.06;5110521;28;20195;-63
2023/09/18 01:25:57;;;;;;;1.17;1.17;;;;;;;21.08;100.00;99920.16;5110204;28;20195;-63
2023/09/18 01:28:24;;;;;;;1.10;1.10;;;;;;;21.11;100.00;99913.94;5109634;28;20210;-63
2023/09/18 01:30:51;;;;;;;1.37;1.37;;;;;;;21.19;100.00;99912.50;5109373;28;20574;-63
2023/09/18 01:33:19;;;;;;;0.80;0.80;;;;;;;21.26;100.00;99915.56;5110750;28;20191;-63
2023/09/18 01:35:47;;;;;;;1.40;1.40;;;;;;;21.27;100.00;99910.22;5113480;28;20243;-63
2023/09/18 01:38:14;;;;;;;2.90;1.70;;;;;;;21.21;100.00;99910.63;5114487;28;20198;-63
2023/09/18 01:40:43;;;;;;;1.20;1.20;;;;;;;21.25;100.00;99912.09;5113726;28;20215;-63
2023/09/18 01:43:10;;;;;;;1.53;1.43;;;;;;;21.33;100.00;99911.59;5113463;28;20300;-63
2023/09/18 01:45:38;;;;;;;1.60;1.60;;;;;;;21.39;100.00;99908.56;5113711;28;20199;-63
2023/09/18 01:48:06;;;;;;;1.20;1.20;;;;;;;21.46;100.00;99915.06;5113940;28;20203;-63
2023/09/18 01:50:33;;;;;;;1.97;1.87;;;;;;;21.46;100.00;99915.06;5113885;28;20240;-63
2023/09/18 01:52:59;;;;;;;1.60;1.30;;;;;;;21.46;100.00;99904.63;5113668;28;20666;-63
2023/09/18 01:55:28;;;;;;;4.47;1.77;;;;;;;21.60;100.00;99917.59;5113889;28;20555;-63
2023/09/18 01:57:57;;;;;;;1.17;1.07;;;;;;;21.66;100.00;99916.31;5113439;28;20585;-63
2023/09/18 02:00:23;;;;;;;2.50;1.53;;;;;;;21.65;100.00;99910.25;5113389;28;20222;-63
2023/09/18 02:02:50;;;;;;;2.07;1.43;;;;;;;21.52;99.84;99909.41;5113465;28;20204;-63
2023/09/18 02:05:17;;;;;;;3.90;1.40;;;;;;;21.52;100.00;99913.81;5113705;28;20234;-63
2023/09/18 02:07:44;;;;;;;1.07;1.07;;;;;;;21.50;100.00;99911.31;5113761;28;20202;-63
2023/09/18 02:10:12;;;;;;;0.90;0.90;;;;;;;21.49;100.00;99919.25;5112186;28;20217;-63
2023/09/18 02:12:39;;;;;;;2.53;1.00;;;;;;;21.47;100.00;99914.13;5113364;28;20205;-63
2023/09/18 02:15:10;;;;;;;1.50;1.40;;;;;;;21.43;100.00;99916.09;5113443;28;20210;-63
2023/09/18 02:17:37;;;;;;;1.47;1.37;;;;;;;21.49;100.00;99914.03;5113668;28;20733;-63
2023/09/18 02:20:11;;;;;;;1.43;1.43;;;;;;;21.47;100.00;99914.13;5113482;28;20201;-63
2023/09/18 02:22:39;;;;;;;2.20;1.13;;;;;;;21.37;100.00;99895.63;5113672;28;20249;-63
2023/09/18 02:25:07;;;;;;;1.20;1.20;;;;;;;21.45;100.00;99914.22;5113189;28;20191;-63
2023/09/18 02:27:34;;;;;;;1.20;1.20;;;;;;;21.46;100.00;99923.72;5113149;28;20260;-63
2023/09/18 02:30:00;;;;;;;0.97;0.97;;;;;;;21.48;100.00;99921.03;5113118;28;20209;-63
2023/09/18 02:32:28;;;;;;;1.20;1.20;;;;;;;21.52;100.00;99919.03;5112827;28;20271;-63
2023/09/18 02:34:55;;;;;;;3.03;0.87;;;;;;;21.53;100.00;99921.53;5113049;28;20294;-62
2023/09/18 02:37:22;;;;;;;1.30;1.30;;;;;;;21.57;99.93;99920.41;5112885;28;20224;-63
2023/09/18 02:39:49;;;;;;;2.47;1.07;;;;;;;21.56;100.00;99916.09;5113117;28;20317;-63
2023/09/18 02:42:15;;;;;;;5.10;0.97;;;;;;;21.59;100.00;99921.13;5112308;28;20222;-63
2023/09/18 02:44:42;;;;;;;0.97;0.97;;;;;;;21.60;100.00;99912.38;5112793;28;20195;-63
2023/09/18 02:47:09;;;;;;;1.60;1.50;;;;;;;21.64;99.74;99913.84;5112649;28;20238;-63
2023/09/18 02:49:37;;;;;;;1.27;1.20;;;;;;;21.67;99.23;99918.84;5112547;28;20199;-63
2023/09/18 02:52:04;;;;;;;1.00;1.00;;;;;;;21.70;99.28;99923.84;5111889;28;20262;-63
2023/09/18 02:54:31;;;;;;;1.20;1.20;;;;;;;21.73;98.99;99918.44;5112465;28;20197;-63
2023/09/18 02:56:58;;;;;;;1.43;1.33;;;;;;;21.76;98.79;99927.81;5112555;28;20206;-63
2023/09/18 02:59:26;;;;;;;2.63;1.40;;;;;;;21.78;98.92;99920.72;5112376;28;20662;-63
2023/09/18 03:01:53;;;;;;;1.70;1.60;;;;;;;21.80;98.97;99924.91;5112534;28;20207;-63
2023/09/18 03:04:20;;;;;;;0.73;0.73;;;;;;;21.81;98.86;99925.75;5112125;28;20198;-63
2023/09/18 03:06:49;;;;;;;1.10;1.10;;;;;;;21.81;98.95;99923.13;5112809;28;20226;-63
2023/09/18 03:09:16;;;;;;;5.60;1.63;;;;;;;21.83;98.75;99924.69;5112107;28;20195;-63
2023/09/18 03:11:43;;;;;;;2.80;1.20;;;;;;;21.85;98.58;99927.19;5112195;28;20205;-63
2023/09/18 03:14:10;;;;;;;1.10;1.10;;;;;;;21.83;98.79;99924.69;5112457;28;20202;-63
2023/09/18 03:16:37;;;;;;;1.60;1.47;;;;;;;21.83;98.43;99927.31;5112133;28;20204;-63
2023/09/18 03:19:04;;;;;;;1.27;1.27;;;;;;;21.82;98.37;99932.63;5111847;28;20195;-63
2023/09/18 03:21:33;;;;;;;1.10;1.10;;;;;;;21.79;97.81;99925.00;5111625;28;20222;-63
2023/09/18 03:24:01;;;;;;;2.63;1.13;;;;;;;21.77;98.20;99932.94;5112181;28;20255;-63
2023/09/18 03:26:28;;;;;;;1.37;1.27;;;;;;;21.79;97.65;99927.59;5111799;28;20202;-63
2023/09/18 03:28:54;;;;;;;1.63;1.53;;;;;;;21.78;97.50;99925.94;5112111;28;20198;-63
2023/09/18 03:31:21;;;;;;;3.33;1.10;;;;;;;21.80;98.32;99932.75;5111655;28;20205;-63
2023/09/18 03:33:48;;;;;;;3.43;1.77;;;;;;;21.82;98.35;99928.25;5112010;28;20570;-63
2023/09/18 03:36:15;;;;;;;1.43;1.33;;;;;;;21.76;98.65;99923.44;5112040;28;20621;-63
2023/09/18 03:38:41;;;;;;;1.43;1.33;;;;;;;21.82;98.58;99930.84;5110594;28;20202;-63
2023/09/18 03:41:09;;;;;;;1.40;1.30;;;;;;;21.84;98.68;99941.19;5111582;28;20218;-63
2023/09/18 03:43:36;;;;;;;1.17;1.10;;;;;;;21.84;99.37;99939.41;5111631;28;20210;-63
2023/09/18 03:46:06;;;;;;;1.30;1.30;;;;;;;21.84;99.87;99931.56;5111348;28;20225;-63
2023/09/18 03:48:37;;;;;;;1.30;1.20;;;;;;;21.84;99.94;99935.97;5111852;28;20217;-63
2023/09/18 03:51:04;;;;;;;1.30;1.20;;;;;;;21.83;100.00;99935.13;5111668;28;20210;-63
2023/09/18 03:53:30;;;;;;;1.53;1.43;;;;;;;21.84;99.84;99931.56;5111002;28;20221;-63
2023/09/18 03:55:58;;;;;;;2.73;1.10;;;;;;;21.83;99.76;99935.13;5111641;28;20210;-62
2023/09/18 03:58:26;;;;;;;4.20;1.40;;;;;;;21.83;100.00;99942.97;5110862;28;20203;-63
2023/09/18 04:00:53;;;;;;;1.10;1.10;;;;;;;21.84;99.85;99942.00;5111133;28;20210;-63
2023/09/18 04:03:20;;;;;;;1.50;1.40;;;;;;;21.84;100.00;99936.78;5111755;28;20216;-63
2023/09/18 04:05:47;;;;;;;1.07;1.00;;;;;;;21.83;99.84;99939.53;5111180;28;20272;-63
2023/09/18 04:08:14;;;;;;;1.67;1.57;;;;;;;21.80;100.00;99935.34;5111004;28;20213;-63
2023/09/18 04:10:41;;;;;;;1.10;1.10;;;;;;;21.78;100.00;99937.22;5111113;28;20338;-63
2023/09/18 04:13:08;;;;;;;1.07;1.07;;;;;;;21.76;100.00;99933.88;5109998;28;20197;-63
2023/09/18 04:15:37;;;;;;;1.77;1.40;;;;;;;21.76;100.00;99941.72;5110108;28;20228;-63
2023/09/18 04:18:05;;;;;;;2.60;1.80;;;;;;;21.79;99.76;99938.88;5110233;28;20678;-63
2023/09/18 04:20:32;;;;;;;1.20;1.20;;;;;;;21.81;100.00;99941.41;5111244;28;20663;-63
2023/09/18 04:23:18;;;;;;;1.53;1.43;;;;;;;21.81;100.00;99937.00;5110465;28;20256;-63
2023/09/18 04:25:46;;;;;;;1.27;1.27;;;;;;;21.83;100.00;99935.13;5111345;28;20198;-63
2023/09/18 04:28:12;;;;;;;1.30;1.20;;;;;;;21.82;99.90;99936.06;5110641;28;20194;-63
2023/09/18 04:30:41;;;;;;;0.90;0.90;;;;;;;21.80;99.56;99932.75;5111178;28;20256;-63
2023/09/18 04:33:07;;;;;;;1.47;1.40;;;;;;;21.81;98.94;99939.59;5111135;28;20638;-63
2023/09/18 04:35:34;;;;;;;1.50;1.40;;;;;;;21.82;98.22;99933.47;5111167;28;20205;-63
2023/09/18 04:38:01;;;;;;;2.83;1.40;;;;;;;21.83;98.88;99940.34;5111021;28;20195;-63
2023/09/18 04:40:31;;;;;;;1.40;1.30;;;;;;;21.87;98.99;99941.00;5110728;28;20195;-63
2023/09/18 04:42:58;;;;;;;1.57;1.33;;;;;;;21.88;98.88;99933.03;5110071;28;20215;-63
2023/09/18 04:45:25;;;;;;;1.33;1.23;;;;;;;21.83;98.93;99918.63;5110574;28;20233;-63
2023/09/18 04:47:54;;;;;;;1.10;1.10;;;;;;;21.89;98.21;99929.53;5111296;28;20266;-63
2023/09/18 04:50:21;;;;;;;1.37;1.27;;;;;;;21.91;97.61;99934.63;5110699;28;20579;-62
2023/09/18 04:52:47;;;;;;;1.30;1.20;;;;;;;21.91;97.91;99943.31;5110865;28;20195;-63
2023/09/18 04:55:15;;;;;;;1.17;1.10;;;;;;;21.95;98.16;99943.94;5110408;28;20209;-63
2023/09/18 04:57:42;;;;;;;1.80;1.10;;;;;;;21.95;97.82;99947.38;5110536;28;20226;-63
2023/09/18 05:00:12;;;;;;;1.70;1.60;;;;;;;21.95;98.35;99944.78;5110672;28;20622;-63
2023/09/18 05:02:40;;;;;;;1.90;1.40;;;;;;;21.97;97.91;99948.09;5110670;28;20235;-63
2023/09/18 05:05:09;;;;;;;1.30;1.20;;;;;;;21.87;96.70;99938.38;5110746;28;20652;-63
2023/09/18 05:07:36;;;;;;;1.63;1.53;;;;;;;21.88;95.74;99943.47;5110425;28;20253;-63
2023/09/18 05:10:04;;;;;;;7.40;1.70;;;;;;;21.88;96.00;99943.47;5111131;28;20666;-63
2023/09/18 05:12:31;;;;;;;1.70;1.60;;;;;;;21.88;96.51;99947.88;5114383;28;20692;-63
2023/09/18 05:14:59;;;;;;;0.90;0.90;;;;;;;21.85;96.78;99942.84;5114894;28;20297;-63
2023/09/18 05:17:46;;;;;;;1.10;1.10;;;;;;;21.71;96.79;99930.72;5113831;28;20199;-69
2023/09/18 05:20:17;;;;;;;1.30;1.30;;;;;;;21.76;96.39;99944.31;5114377;28;20654;-62
2023/09/18 05:22:44;;;;;;;2.80;1.67;;;;;;;21.75;96.62;99945.25;5111085;28;20214;-63
2023/09/18 05:25:12;;;;;;;1.17;1.10;;;;;;;21.62;98.22;99931.34;5114287;28;20209;-64
2023/09/18 05:27:43;;;;;;;1.37;1.27;;;;;;;21.69;98.81;99943.06;5113767;28;20198;-64
2023/09/18 05:30:13;;;;;;;1.50;1.40;;;;;;;21.67;98.74;99938.88;5113894;28;20272;-63
2023/09/18 05:32:40;;;;;;;1.33;1.33;;;;;;;21.65;99.45;99938.97;5114310;28;20218;-62
2023/09/18 05:35:09;;;;;;;1.50;1.50;;;;;;;21.62;98.31;99930.50;5114145;28;20723;-62
2023/09/18 05:37:38;;;;;;;3.00;2.10;;;;;;;21.57;98.75;99912.56;5113562;28;20252;-62
2023/09/18 05:40:07;;;;;;;1.77;1.60;;;;;;;21.63;99.03;99927.81;5113753;28;20191;-62
2023/09/18 05:42:33;;;;;;;1.40;1.40;;;;;;;21.65;100.00;99930.34;5113276;28;20214;-62
2023/09/18 05:45:00;;;;;;;3.33;1.27;;;;;;;21.62;100.00;99928.75;5113268;28;20653;-62
2023/09/18 05:47:29;;;;;;;2.20;1.97;;;;;;;21.55;100.00;99935.31;5113235;28;20230;-63
2023/09/18 05:49:56;;;;;;;2.00;1.90;;;;;;;21.56;100.00;99936.16;5113053;28;20675;-62
2023/09/18 05:52:24;;;;;;;2.67;2.13;;;;;;;21.55;100.00;99945.75;5112626;28;20201;-62
2023/09/18 05:54:52;;;;;;;3.33;1.63;;;;;;;21.52;100.00;99943.34;5112415;28;20680;-62
2023/09/18 05:57:19;;;;;;;3.93;2.20;;;;;;;21.49;100.00;99935.72;5112415;28;20240;-61
2023/09/18 05:59:46;;;;;;;1.87;1.87;;;;;;;21.49;99.54;99942.72;5112231;28;20230;-62
2023/09/18 06:02:13;;;;;;;2.37;1.83;;;;;;;21.57;100.00;99943.88;5112082;27;20571;-62
2023/09/18 06:04:40;;;;;;;1.87;1.60;;;;;;;21.67;99.75;99946.72;5110807;28;20198;-62
2023/09/18 06:07:08;;;;;;;1.80;1.77;;;;;;;21.73;99.70;99952.34;5111409;28;20217;-63
2023/09/18 06:09:34;;;;;;;1.40;1.33;;;;;;;21.79;98.51;99946.72;5111662;28;20207;-62
2023/09/18 06:12:04;;;;;;;1.43;1.33;;;;;;;21.74;98.33;99935.78;5111644;28;20203;-62
2023/09/18 06:14:31;;;;;;;1.20;1.20;;;;;;;21.93;98.39;99951.88;5111224;28;20199;-63
2023/09/18 06:16:58;;;;;;;1.43;1.33;;;;;;;22.04;96.86;99958.97;5113548;27;20213;-62
2023/09/18 06:19:25;;;;;;;1.30;1.30;;;;;;;22.13;95.24;99960.97;5112201;28;20202;-62
2023/09/18 06:21:51;;;;;;;1.37;1.27;;;;;;;22.10;94.95;99957.72;5110826;28;20233;-62
2023/09/18 06:24:18;;;;;;;1.80;1.70;;;;;;;22.22;95.12;99965.56;5111935;28;20210;-62
2023/09/18 06:26:45;;;;;;;1.50;1.40;;;;;;;22.32;94.70;99955.31;5112046;28;20669;-62
2023/09/18 06:29:13;;;;;;;1.67;1.57;;;;;;;22.50;95.31;99961.84;5111953;28;20199;-62
2023/09/18 06:31:40;;;;;;;1.70;1.33;;;;;;;22.68;94.99;99965.78;5111542;28;20210;-61
2023/09/18 06:34:06;;;;;;;1.27;1.27;;;;;;;22.79;93.02;99968.50;5112273;28;20214;-62
2023/09/18 06:36:34;;;;;;;0.80;0.80;;;;;;;22.93;91.89;99965.72;5111766;28;20210;-62
2023/09/18 06:39:02;;;;;;;1.27;1.27;;;;;;;23.01;90.83;99967.78;5113219;27;20194;-62
2023/09/18 06:41:29;;;;;;;1.23;1.23;;;;;;;23.16;90.78;99971.91;5112108;28;20199;-62
2023/09/18 06:43:57;;;;;;;2.40;1.40;;;;;;;23.37;90.16;99969.50;5111427;28;20214;-61
2023/09/18 06:46:25;;;;;;;1.30;1.30;;;;;;;23.58;87.64;99974.97;5111478;28;20234;-62
2023/09/18 06:48:52;;;;;;;2.77;1.20;;;;;;;23.64;86.75;99969.25;5112142;27;20264;-62
2023/09/18 06:51:19;;;;;;;1.50;1.40;;;;;;;23.63;87.34;99964.97;5111781;28;20281;-62
2023/09/18 06:53:46;;;;;;;1.63;1.53;;;;;;;23.71;89.07;99963.47;5111187;28;20627;-62
2023/09/18 06:56:13;;;;;;;1.30;1.20;;;;;;;23.77;89.26;99968.22;5112597;28;20233;-62
2023/09/18 06:58:40;;;;;;;1.27;1.27;;;;;;;23.85;88.16;99963.22;5112108;28;20651;-63
2023/09/18 07:01:09;;;;;;;1.90;1.37;;;;;;;23.75;87.17;99954.41;5109141;28;20211;-62
2023/09/18 07:03:40;;;;;;;1.27;1.27;;;;;;;23.79;85.55;99961.09;5103954;28;20754;-62
2023/09/18 07:06:06;;;;;;;1.20;1.20;;;;;;;23.86;85.71;99962.28;5102255;28;20260;-62
2023/09/18 07:08:33;;;;;;;1.70;1.60;;;;;;;24.01;85.80;99958.50;5106036;28;20205;-62
2023/09/18 07:11:01;;;;;;;1.13;1.13;;;;;;;24.27;83.00;99972.22;5102057;28;20264;-61
2023/09/18 07:13:27;;;;;;;1.00;1.00;;;;;;;24.41;80.41;99969.38;5101088;28;20706;-62
2023/09/18 07:15:54;;;;;;;1.40;1.30;;;;;;;24.45;80.95;99967.34;5103846;28;20227;-62
2023/09/18 07:18:21;;;;;;;1.10;1.10;;;;;;;24.53;81.21;99970.19;5099271;28;20257;-63
2023/09/18 07:20:49;;;;;;;1.20;1.10;;;;;;;24.60;79.93;99971.38;5101588;28;20662;-62
2023/09/18 07:23:16;;;;;;;0.90;0.90;;;;;;;24.59;77.36;99972.31;5106120;28;20640;-62
2023/09/18 07:25:44;;;;;;;1.10;1.10;;;;;;;24.62;77.23;99971.28;5111319;28;20229;-61
2023/09/18 07:28:15;;;;;;;0.97;0.90;;;;;;;24.68;76.76;99976.03;5112209;28;20194;-62
2023/09/18 07:30:43;;;;;;;4.33;1.37;;;;;;;24.61;75.88;99975.69;5112359;28;20291;-62
2023/09/18 07:33:10;;;;;;;0.70;0.70;;;;;;;24.72;76.91;99972.22;5111478;28;20194;-61
2023/09/18 07:35:37;;;;;;;1.07;1.07;;;;;;;24.83;75.33;99980.09;5112222;28;20195;-62
2023/09/18 07:38:05;;;;;;;1.00;1.00;;;;;;;24.98;75.68;99977.06;5112214;28;20203;-62
2023/09/18 07:40:32;;;;;;;1.00;1.00;;;;;;;25.16;76.38;99982.63;5112111;28;20195;-62
2023/09/18 07:42:59;;;;;;;0.93;0.93;;;;;;;25.11;69.66;99979.53;5112257;28;20222;-62
2023/09/18 07:45:26;;;;;;;0.87;0.87;;;;;;;24.92;70.01;99980.19;5112236;27;20198;-62
2023/09/18 07:47:52;;;;;;;1.60;0.77;;;;;;;24.74;70.40;99976.38;5112015;28;20217;-62
2023/09/18 07:50:19;;;;;;;1.97;1.87;;;;;;;24.91;71.03;99978.50;5111754;28;20810;-62
2023/09/18 07:52:46;;;;;;;0.80;0.80;;;;;;;25.03;68.35;99977.53;5110945;28;20655;-62
2023/09/18 07:55:14;;;;;;;1.07;0.93;;;;;;;25.29;69.06;99967.56;5111790;28;20210;-64
2023/09/18 07:57:41;;;;;;;1.63;1.10;;;;;;;25.57;66.71;99976.63;5110412;28;20285;-62
2023/09/18 08:00:12;;;;;;;1.10;1.00;;;;;;;25.70;67.46;99972.03;5109394;28;20210;-61
2023/09/18 08:02:39;;;;;;;0.80;0.80;;;;;;;25.63;67.36;99973.50;5106215;28;20682;-61
2023/09/18 08:05:07;;;;;;;0.80;0.80;;;;;;;25.48;67.27;99972.13;5109338;28;20260;-61
2023/09/18 08:07:35;;;;;;;0.70;0.70;;;;;;;25.48;66.84;99972.13;5110249;28;20279;-61
2023/09/18 08:10:01;;;;;;;1.63;1.00;;;;;;;25.29;67.40;99971.97;5111252;28;20601;-62
2023/09/18 08:12:30;;;;;;;0.70;0.70;;;;;;;25.26;69.15;99966.97;5109598;28;20203;-61
2023/09/18 08:14:58;;;;;;;1.10;1.10;;;;;;;25.34;68.57;99967.16;5111035;28;20198;-62
2023/09/18 08:17:25;;;;;;;0.77;0.70;;;;;;;25.33;68.34;99962.88;5111156;28;20199;-62
2023/09/18 08:19:54;;;;;;;0.80;0.80;;;;;;;25.37;67.30;99959.03;5110992;28;20206;-62
2023/09/18 08:22:21;;;;;;;0.90;0.90;;;;;;;25.66;68.21;99970.59;5110783;28;20256;-62
2023/09/18 08:24:48;;;;;;;0.97;0.97;;;;;;;25.81;65.91;99953.59;5111336;27;20578;-62
2023/09/18 08:27:17;;;;;;;0.80;0.80;;;;;;;25.84;67.09;99953.31;5110047;28;20228;-62
2023/09/18 08:29:45;;;;;;;1.00;1.00;;;;;;;25.82;66.35;99942.09;5110972;28;20237;-62
2023/09/18 08:32:12;;;;;;;1.57;1.00;;;;;;;26.03;65.88;99953.41;5111026;28;20698;-62
2023/09/18 08:34:39;;;;;;;0.90;0.90;;;;;;;26.22;65.95;99951.88;5106585;28;20230;-61
2023/09/18 08:37:06;;;;;;;0.80;0.80;;;;;;;26.29;65.07;99958.28;5107900;28;21909;-62
2023/09/18 08:39:33;;;;;;;1.70;0.80;;;;;;;26.07;65.49;99957.44;5109221;28;20198;-62
2023/09/18 08:42:04;;;;;;;0.70;0.70;;;;;;;26.21;63.79;99950.19;5110277;28;20208;-61
2023/09/18 08:44:31;;;;;;;0.70;0.70;;;;;;;26.30;65.24;99939.72;5114822;28;20233;-61
2023/09/18 08:47:00;;;;;;;0.90;0.90;;;;;;;26.38;64.07;99946.94;5117352;27;20226;-61
2023/09/18 08:49:28;;;;;;;1.03;1.03;;;;;;;26.51;63.51;99940.50;5117443;27;20217;-61
2023/09/18 08:51:56;;;;;;;0.67;0.67;;;;;;;26.49;63.55;99946.84;5116921;28;20202;-61
2023/09/18 08:54:24;;;;;;;0.97;0.90;;;;;;;26.05;63.54;99927.00;5116793;28;20247;-61
2023/09/18 08:56:51;;;;;;;0.70;0.70;;;;;;;26.17;64.15;99946.19;5115184;28;20714;-62
2023/09/18 08:59:21;;;;;;;0.63;0.63;;;;;;;26.15;63.40;99945.44;5117364;27;20202;-62
2023/09/18 09:01:48;;;;;;;0.97;0.70;;;;;;;26.07;65.49;99940.84;5116554;27;20654;-58
2023/09/18 09:04:16;;;;;;;0.80;0.80;;;;;;;26.17;64.22;99935.69;5115782;28;20226;-58
2023/09/18 09:06:43;;;;;;;0.90;0.90;;;;;;;26.09;65.67;99937.13;5116922;28;20271;-58
2023/09/18 09:09:12;;;;;;;0.57;0.57;;;;;;;26.01;66.52;99929.06;5116507;28;20216;-58
2023/09/18 09:11:39;;;;;;;0.70;0.70;;;;;;;26.19;65.96;99910.09;5116654;28;20236;-58
2023/09/18 09:14:11;;;;;;;0.90;0.90;;;;;;;26.40;65.85;99924.81;5117217;28;20570;-59
2023/09/18 09:16:40;;;;;;;1.10;1.10;;;;;;;26.46;64.06;99918.22;5117044;27;20635;-58
2023/09/18 09:19:07;;;;;;;0.63;0.63;;;;;;;26.53;64.01;99916.69;5114058;28;20245;-59
2023/09/18 09:21:43;;;;;;;0.60;0.60;;;;;;;26.68;61.76;99928.50;5116694;27;20559;-57
2023/09/18 09:24:13;;;;;;;0.80;0.80;;;;;;;26.86;63.46;99926.88;5116798;27;20305;-59
2023/09/18 09:26:40;;;;;;;0.70;0.70;;;;;;;27.09;62.09;99922.19;5112431;28;20238;-59
2023/09/18 09:29:18;;;;;;;2.10;0.70;;;;;;;27.14;60.79;99926.06;5116372;27;20214;-58
2023/09/18 09:31:45;;;;;;;2.93;1.10;;;;;;;27.24;60.85;99925.25;5116355;27;20675;-58
2023/09/18 09:34:12;;;;;;;0.83;0.83;;;;;;;27.23;59.96;99928.84;5113697;28;20314;-58
2023/09/18 09:36:54;;;;;;;1.23;0.70;;;;;;;27.30;61.34;99935.22;5116908;28;20662;-58
2023/09/18 09:39:24;;;;;;;0.73;0.73;;;;;;;27.47;60.02;99931.88;5116916;27;20628;-58
2023/09/18 09:41:52;;;;;;;0.77;0.77;;;;;;;27.17;57.88;99929.41;5115902;27;20198;-58
2023/09/18 09:44:20;;;;;;;1.00;1.00;;;;;;;26.98;59.20;99917.88;5115830;27;20635;-58
2023/09/18 09:46:48;;;;;;;1.17;1.10;;;;;;;27.05;60.46;99926.91;5111557;28;20222;-58
2023/09/18 09:49:15;;;;;;;0.67;0.67;;;;;;;27.01;58.68;99928.13;5116141;27;20195;-58
2023/09/18 09:51:43;;;;;;;1.07;0.70;;;;;;;26.71;59.93;99914.22;5115945;27;20654;-58
2023/09/18 09:54:12;;;;;;;0.77;0.77;;;;;;;26.74;60.24;99916.59;5115881;28;20279;-58
2023/09/18 09:56:43;;;;;;;1.17;0.87;;;;;;;26.71;60.44;99917.69;5112201;28;20285;-57
2023/09/18 09:59:11;;;;;;;1.60;1.00;;;;;;;26.79;60.37;99915.19;5104446;27;20674;-59
2023/09/18 10:01:40;;;;;;;0.97;0.90;;;;;;;26.85;60.16;99904.16;5109382;28;20202;-58
2023/09/18 10:04:11;;;;;;;0.77;0.77;;;;;;;26.68;57.89;99910.09;5110958;28;20234;-59
2023/09/18 10:06:38;;;;;;;0.70;0.70;;;;;;;26.74;59.05;99901.63;5110964;28;20259;-58
2023/09/18 10:09:09;;;;;;;0.83;0.83;;;;;;;27.00;59.57;99901.97;5112305;28;20290;-58
2023/09/18 10:11:42;;;;;;;1.43;1.33;;;;;;;27.25;59.87;99901.41;5112709;28;20675;-59
2023/09/18 10:14:13;;;;;;;0.70;0.70;;;;;;;27.36;59.88;99900.44;5108362;28;20885;-58
2023/09/18 10:16:44;;;;;;;0.73;0.73;;;;;;;27.44;59.82;99890.03;5110144;28;20248;-60
2023/09/18 10:19:23;;;;;;;0.70;0.70;;;;;;;27.50;59.25;99895.56;5112521;28;20247;-58
2023/09/18 10:22:00;;;;;;;1.03;1.03;;;;;;;27.50;58.91;99894.72;5112515;28;20605;-58
2023/09/18 10:24:30;;;;;;;0.90;0.90;;;;;;;27.58;58.33;99897.50;5112720;28;20210;-58
2023/09/18 10:27:00;;;;;;;0.50;0.50;;;;;;;27.49;58.15;99891.28;5112164;28;20206;-59
2023/09/18 10:29:28;;;;;;;1.73;0.83;;;;;;;27.28;56.62;99895.00;5111730;27;20256;-58
2023/09/18 10:31:56;;;;;;;0.80;0.80;;;;;;;27.06;56.22;99886.47;5112143;28;20612;-58
2023/09/18 10:34:24;;;;;;;1.57;0.87;;;;;;;26.96;57.07;99880.34;5112098;28;20198;-58
2023/09/18 10:36:53;;;;;;;0.83;0.83;;;;;;;27.07;58.12;99880.22;5112419;28;20233;-59
2023/09/18 10:39:23;;;;;;;1.17;1.00;;;;;;;27.09;57.74;99870.38;5112402;28;20209;-59
2023/09/18 10:41:53;;;;;;;0.93;0.83;;;;;;;27.01;59.68;99864.97;5112191;28;20202;-59
2023/09/18 10:44:21;;;;;;;0.80;0.80;;;;;;;27.12;59.97;99864.84;5112776;28;20218;-58
2023/09/18 10:46:51;;;;;;;1.20;1.20;;;;;;;27.06;59.08;99852.25;5109434;28;20279;-59
2023/09/18 10:49:18;;;;;;;4.07;1.10;;;;;;;27.11;59.40;99857.91;5111874;28;20209;-58
2023/09/18 10:51:47;;;;;;;1.00;1.00;;;;;;;27.22;60.76;99848.19;5112295;28;20247;-59
2023/09/18 10:54:17;;;;;;;0.90;0.90;;;;;;;27.34;59.08;99849.69;5112481;28;20213;-59
2023/09/18 10:56:44;;;;;;;0.83;0.83;;;;;;;27.22;57.48;99843.75;5112339;27;20242;-58
2023/09/18 10:59:11;;;;;;;0.80;0.80;;;;;;;27.27;57.46;99841.53;5112161;28;20206;-59
2023/09/18 11:01:40;;;;;;;0.80;0.80;;;;;;;27.24;56.75;99846.28;5112030;28;20204;-59
2023/09/18 11:04:10;;;;;;;0.90;0.90;;;;;;;27.27;56.61;99849.41;5112068;28;20226;-59
2023/09/18 11:07:05;;;;;;;0.87;0.87;;;;;;;27.37;55.83;99846.78;5110502;28;20206;-58
2023/09/18 11:09:41;;;;;;;0.50;0.50;;;;;;;27.51;54.91;99849.00;5111721;28;20621;-59
2023/09/18 11:12:09;;;;;;;0.63;0.63;;;;;;;27.36;53.21;99845.13;5112270;28;20270;-60
2023/09/18 11:14:44;;;;;;;0.83;0.83;;;;;;;27.29;54.46;99838.75;5111718;28;20201;-59
2023/09/18 11:17:31;;;;;;;0.60;0.60;;;;;;;27.46;57.08;99845.97;5111067;28;20206;-59
2023/09/18 11:20:12;;;;;;;0.70;0.70;;;;;;;27.62;54.22;99838.31;5107691;28;20578;-59
2023/09/18 11:22:47;;;;;;;0.60;0.60;;;;;;;27.75;53.16;99825.63;5110089;28;20651;-58
2023/09/18 11:25:37;;;;;;;0.80;0.80;;;;;;;27.84;52.86;99830.03;5109358;28;20674;-59
2023/09/18 11:28:07;;;;;;;0.73;0.73;;;;;;;27.77;52.32;99826.31;5111444;27;20282;-58
2023/09/18 11:30:35;;;;;;;0.77;0.77;;;;;;;27.69;52.03;99842.00;5111012;28;20222;-59
2023/09/18 11:33:05;;;;;;;0.70;0.70;;;;;;;27.62;52.18;99847.03;5110789;28;20205;-59
2023/09/18 11:35:33;;;;;;;0.57;0.57;;;;;;;27.62;51.78;99838.31;5110690;28;20203;-59
2023/09/18 11:38:07;;;;;;;0.60;0.60;;;;;;;27.54;52.74;99839.00;5111144;28;20301;-59